Coastal Nomad — WDC6439 — position and weather

sailwx.info

Track history (hours):
 
Tides and Currents Weather Stations Pressure Air Temp Water Temp Dewpoint Dewpoint Depression Visibility Wind Speed Wind Dir Waves Ship Positions

Coastal Nomad

More information available from US FCC via Universal Licensing System and Coast Guard Vessel Documentation Center.

Last reported at 2014-Aug-24 05:07 UTC. Time now 2014-Aug-28 07:30 UTC.
Position N 51°01' W 127°59'.

Length 74 m; draft 3.9 m.

Type: Cargo ship. MMSI: 303683000.

Date/timePositionNaut miles runAvg speedWind from/ knotsBaromVisibWave heightAir tempDewpointWater temp
2014-Aug-24 05:07N 51°01' W 127°59'611.3
2014-Aug-24 04:33N 50°59' W 127°50'7 7.4
2014-Aug-24 03:33N 50°55' W 127°40'1212.3
2014-Aug-24 02:33N 50°49' W 127°23'1211.9
2014-Aug-24 01:33N 50°45' W 127°05'1211.4
2014-Aug-24 00:30N 50°39' W 126°48'1111.8
2014-Aug-23 23:33N 50°31' W 126°37'1311.9
2014-Aug-23 22:28N 50°29' W 126°17'20210.7
2014-Aug-23 03:33N 48°06' W 122°39'1313.2
2014-Aug-23 02:34N 47°55' W 122°29'1212.4
2014-Aug-23 01:34N 47°43' W 122°25'3 3.1
2014-Aug-23 00:34N 47°46' W 122°25'6 5.1
2014-Aug-22 23:24N 47°40' W 122°24'1 1.2
2014-Aug-22 22:32N 47°39' W 122°23'0 0.0
2014-Aug-22 21:33N 47°39' W 122°23'0 0.0
2014-Aug-22 20:33N 47°39' W 122°23'0 0.0
2014-Aug-22 19:33N 47°39' W 122°23'0 0.0
2014-Aug-22 18:33N 47°39' W 122°23'0 0.0
2014-Aug-22 17:25N 47°39' W 122°23'0 0.0
2014-Aug-22 16:33N 47°39' W 122°23'0 0.0
2014-Aug-22 15:29N 47°39' W 122°23'  
2014-Aug-17 16:17N 47°39' W 122°23'0 0.0
2014-Aug-17 15:32N 47°39' W 122°23'2 1.8
2014-Aug-17 14:34N 47°40' W 122°25'3 3.1
2014-Aug-17 13:33N 47°38' W 122°23'0 0.0
2014-Aug-17 12:33N 47°38' W 122°23'0 0.0
2014-Aug-17 11:33N 47°38' W 122°23'0 0.0
2014-Aug-17 10:33N 47°38' W 122°23'0 0.0
2014-Aug-17 09:33N 47°38' W 122°23'0 0.0
2014-Aug-17 08:33N 47°38' W 122°23'0 0.0
2014-Aug-17 07:33N 47°38' W 122°23'0 0.0
2014-Aug-17 06:33N 47°38' W 122°23'0 0.0
2014-Aug-17 05:33N 47°38' W 122°23'0 0.0
2014-Aug-17 04:33N 47°38' W 122°23'0 0.0
2014-Aug-17 03:33N 47°38' W 122°23'0 0.0
2014-Aug-17 02:33N 47°38' W 122°23'0 0.0
2014-Aug-17 01:33N 47°38' W 122°23'0 0.0
2014-Aug-17 00:33N 47°38' W 122°23'0 0.0
2014-Aug-16 23:33N 47°38' W 122°23'0 0.0
2014-Aug-16 22:33N 47°38' W 122°23'0 0.0
2014-Aug-16 21:33N 47°38' W 122°23'0 0.0
2014-Aug-16 20:33N 47°38' W 122°23'0 0.0
2014-Aug-16 19:33N 47°38' W 122°23'0 0.0
2014-Aug-16 18:47N 47°38' W 122°23'0 0.0
2014-Aug-16 18:33N 47°38' W 122°23'0 0.0
2014-Aug-16 18:32N 47°38' W 122°23'0 0.0
2014-Aug-16 17:33N 47°38' W 122°23'0 0.0
2014-Aug-16 17:27N 47°38' W 122°23'0 0.0
2014-Aug-16 16:33N 47°38' W 122°23'0 0.0
2014-Aug-16 16:32N 47°38' W 122°23'0 0.0
2014-Aug-16 15:33N 47°38' W 122°23'0 0.0
2014-Aug-16 15:31N 47°38' W 122°23'0 0.0
2014-Aug-16 14:33N 47°38' W 122°23'0 0.0
2014-Aug-16 14:31N 47°38' W 122°23'0 0.0
2014-Aug-16 13:33N 47°38' W 122°23'0 0.0
2014-Aug-16 13:31N 47°38' W 122°23'0 0.0
2014-Aug-16 12:33N 47°38' W 122°23'0 0.0
2014-Aug-16 12:31N 47°38' W 122°23'0 0.0
2014-Aug-16 11:33N 47°38' W 122°23'0 0.0
2014-Aug-16 11:31N 47°38' W 122°23'0 0.0
2014-Aug-16 10:33N 47°38' W 122°23'0 0.0
2014-Aug-16 10:31N 47°38' W 122°23'0 0.0
2014-Aug-16 09:33N 47°38' W 122°23'0 0.0
2014-Aug-16 09:30N 47°38' W 122°23'0 0.0
2014-Aug-16 08:33N 47°38' W 122°23'0 0.0
2014-Aug-16 08:30N 47°38' W 122°23'0 0.0
2014-Aug-16 07:33N 47°38' W 122°23'0 0.0
2014-Aug-16 07:30N 47°38' W 122°23'0 0.0
2014-Aug-16 06:35N 47°38' W 122°23'0 0.0
2014-Aug-16 06:33N 47°38' W 122°23'0 0.0
2014-Aug-16 05:33N 47°38' W 122°23'0 0.5
2014-Aug-16 05:29N 47°38' W 122°23'6 6.4
2014-Aug-16 04:33N 47°42' W 122°28'111.1
2014-Aug-16 04:30N 47°43' W 122°28'1111.3
2014-Aug-16 03:33N 47°54' W 122°29'111.4
2014-Aug-16 03:29N 47°54' W 122°30'1212.3
2014-Aug-16 02:33N 48°04' W 122°40'110.9
2014-Aug-16 02:28N 48°05' W 122°40'1212.5
2014-Aug-16 01:33N 48°11' W 122°54'1212.0
2014-Aug-16 00:33N 48°12' W 123°12'1211.9
2014-Aug-15 23:33N 48°13' W 123°30'1110.7
2014-Aug-15 22:33N 48°14' W 123°46'1111.3
2014-Aug-15 21:33N 48°16' W 124°03'1111.1
2014-Aug-15 20:34N 48°21' W 124°17'9 9.3
2014-Aug-15 19:34N 48°25' W 124°30'1010.1
2014-Aug-15 18:33N 48°28' W 124°45'1010.4
2014-Aug-15 17:33N 48°28' W 125°01'1111.3
2014-Aug-15 16:33N 48°32' W 125°17'1111.5
2014-Aug-15 15:34N 48°37' W 125°32'1110.8
2014-Aug-15 14:34N 48°43' W 125°46'1110.8
2014-Aug-15 13:34N 48°49' W 125°60'1111.2
2014-Aug-15 12:34N 48°56' W 126°13'1111.4
2014-Aug-15 11:33N 49°03' W 126°27'1110.4
2014-Aug-15 10:32N 49°09' W 126°40'  
Track history (hours):
 
Tides and Currents Weather Stations Pressure Air Temp Water Temp Dewpoint Dewpoint Depression Visibility Wind Speed Wind Dir Waves Ship Positions

Coastal Nomad

More information available from US FCC via Universal Licensing System and Coast Guard Vessel Documentation Center.

Last reported at 2014-Aug-24 05:07 UTC. Time now 2014-Aug-28 07:30 UTC.
Position N 51°01' W 127°59'.

Length 74 m; draft 3.9 m.

Type: Cargo ship. MMSI: 303683000.

Date/timePositionNaut miles runAvg speedWind from/ knotsBaromVisibWave heightAir tempDewpointWater temp
2014-Aug-24 05:07N 51°01' W 127°59'611.3
2014-Aug-24 04:33N 50°59' W 127°50'7 7.4
2014-Aug-24 03:33N 50°55' W 127°40'1212.3
2014-Aug-24 02:33N 50°49' W 127°23'1211.9
2014-Aug-24 01:33N 50°45' W 127°05'1211.4
2014-Aug-24 00:30N 50°39' W 126°48'1111.8
2014-Aug-23 23:33N 50°31' W 126°37'1311.9
2014-Aug-23 22:28N 50°29' W 126°17'20210.7
2014-Aug-23 03:33N 48°06' W 122°39'1313.2
2014-Aug-23 02:34N 47°55' W 122°29'1212.4
2014-Aug-23 01:34N 47°43' W 122°25'3 3.1
2014-Aug-23 00:34N 47°46' W 122°25'6 5.1
2014-Aug-22 23:24N 47°40' W 122°24'1 1.2
2014-Aug-22 22:32N 47°39' W 122°23'0 0.0
2014-Aug-22 21:33N 47°39' W 122°23'0 0.0
2014-Aug-22 20:33N 47°39' W 122°23'0 0.0
2014-Aug-22 19:33N 47°39' W 122°23'0 0.0
2014-Aug-22 18:33N 47°39' W 122°23'0 0.0
2014-Aug-22 17:25N 47°39' W 122°23'0 0.0
2014-Aug-22 16:33N 47°39' W 122°23'0 0.0
2014-Aug-22 15:29N 47°39' W 122°23'  
2014-Aug-17 16:17N 47°39' W 122°23'0 0.0
2014-Aug-17 15:32N 47°39' W 122°23'2 1.8
2014-Aug-17 14:34N 47°40' W 122°25'3 3.1
2014-Aug-17 13:33N 47°38' W 122°23'0 0.0
2014-Aug-17 12:33N 47°38' W 122°23'0 0.0
2014-Aug-17 11:33N 47°38' W 122°23'0 0.0
2014-Aug-17 10:33N 47°38' W 122°23'0 0.0
2014-Aug-17 09:33N 47°38' W 122°23'0 0.0
2014-Aug-17 08:33N 47°38' W 122°23'0 0.0
2014-Aug-17 07:33N 47°38' W 122°23'0 0.0
2014-Aug-17 06:33N 47°38' W 122°23'0 0.0
2014-Aug-17 05:33N 47°38' W 122°23'0 0.0
2014-Aug-17 04:33N 47°38' W 122°23'0 0.0
2014-Aug-17 03:33N 47°38' W 122°23'0 0.0
2014-Aug-17 02:33N 47°38' W 122°23'0 0.0
2014-Aug-17 01:33N 47°38' W 122°23'0 0.0
2014-Aug-17 00:33N 47°38' W 122°23'0 0.0
2014-Aug-16 23:33N 47°38' W 122°23'0 0.0
2014-Aug-16 22:33N 47°38' W 122°23'0 0.0
2014-Aug-16 21:33N 47°38' W 122°23'0 0.0
2014-Aug-16 20:33N 47°38' W 122°23'0 0.0
2014-Aug-16 19:33N 47°38' W 122°23'0 0.0
2014-Aug-16 18:47N 47°38' W 122°23'0 0.0
2014-Aug-16 18:33N 47°38' W 122°23'0 0.0
2014-Aug-16 18:32N 47°38' W 122°23'0 0.0
2014-Aug-16 17:33N 47°38' W 122°23'0 0.0
2014-Aug-16 17:27N 47°38' W 122°23'0 0.0
2014-Aug-16 16:33N 47°38' W 122°23'0 0.0
2014-Aug-16 16:32N 47°38' W 122°23'0 0.0
2014-Aug-16 15:33N 47°38' W 122°23'0 0.0
2014-Aug-16 15:31N 47°38' W 122°23'0 0.0
2014-Aug-16 14:33N 47°38' W 122°23'0 0.0
2014-Aug-16 14:31N 47°38' W 122°23'0 0.0
2014-Aug-16 13:33N 47°38' W 122°23'0 0.0
2014-Aug-16 13:31N 47°38' W 122°23'0 0.0
2014-Aug-16 12:33N 47°38' W 122°23'0 0.0
2014-Aug-16 12:31N 47°38' W 122°23'0 0.0
2014-Aug-16 11:33N 47°38' W 122°23'0 0.0
2014-Aug-16 11:31N 47°38' W 122°23'0 0.0
2014-Aug-16 10:33N 47°38' W 122°23'0 0.0
2014-Aug-16 10:31N 47°38' W 122°23'0 0.0
2014-Aug-16 09:33N 47°38' W 122°23'0 0.0
2014-Aug-16 09:30N 47°38' W 122°23'0 0.0
2014-Aug-16 08:33N 47°38' W 122°23'0 0.0
2014-Aug-16 08:30N 47°38' W 122°23'0 0.0
2014-Aug-16 07:33N 47°38' W 122°23'0 0.0
2014-Aug-16 07:30N 47°38' W 122°23'0 0.0
2014-Aug-16 06:35N 47°38' W 122°23'0 0.0
2014-Aug-16 06:33N 47°38' W 122°23'0 0.0
2014-Aug-16 05:33N 47°38' W 122°23'0 0.5
2014-Aug-16 05:29N 47°38' W 122°23'6 6.4
2014-Aug-16 04:33N 47°42' W 122°28'111.1
2014-Aug-16 04:30N 47°43' W 122°28'1111.3
2014-Aug-16 03:33N 47°54' W 122°29'111.4
2014-Aug-16 03:29N 47°54' W 122°30'1212.3
2014-Aug-16 02:33N 48°04' W 122°40'110.9
2014-Aug-16 02:28N 48°05' W 122°40'1212.5
2014-Aug-16 01:33N 48°11' W 122°54'1212.0
2014-Aug-16 00:33N 48°12' W 123°12'1211.9
2014-Aug-15 23:33N 48°13' W 123°30'1110.7
2014-Aug-15 22:33N 48°14' W 123°46'1111.3
2014-Aug-15 21:33N 48°16' W 124°03'1111.1
2014-Aug-15 20:34N 48°21' W 124°17'9 9.3
2014-Aug-15 19:34N 48°25' W 124°30'1010.1
2014-Aug-15 18:33N 48°28' W 124°45'1010.4
2014-Aug-15 17:33N 48°28' W 125°01'1111.3
2014-Aug-15 16:33N 48°32' W 125°17'1111.5
2014-Aug-15 15:34N 48°37' W 125°32'1110.8
2014-Aug-15 14:34N 48°43' W 125°46'1110.8
2014-Aug-15 13:34N 48°49' W 125°60'1111.2
2014-Aug-15 12:34N 48°56' W 126°13'1111.4
2014-Aug-15 11:33N 49°03' W 126°27'1110.4
2014-Aug-15 10:32N 49°09' W 126°40'  

Dump ship's entire track history